Time;durP1;ratioP1;P1;durP2;ratioP2;P2;SDS_P1;SDS_P2;PMS_P1;PMS_P2;Temp;Humidity;BMP_temperature;BMP_pressure;BME280_temperature;BME280_humidity;BME280_pressure;Samples;Min_cycle;Max_cycle;Signal;HPM_P1;HPM_P2
2023/06/19 00:00:45;;;;;;;7.82;4.88;;;;;;;22.35;100.00;98237.97;5033170;28;20029;-71
2023/06/19 00:03:10;;;;;;;7.03;4.65;;;;;;;22.30;100.00;98240.81;5037816;28;20419;-70
2023/06/19 00:05:35;;;;;;;7.07;4.57;;;;;;;22.25;100.00;98246.38;5023633;28;20036;-71
2023/06/19 00:08:03;;;;;;;7.40;4.85;;;;;;;22.20;100.00;98257.44;5031744;28;20399;-72
2023/06/19 00:10:28;;;;;;;9.63;5.60;;;;;;;22.08;100.00;98255.06;5030948;28;20056;-73
2023/06/19 00:12:54;;;;;;;10.02;5.60;;;;;;;22.08;100.00;98261.38;5029070;28;20479;-72
2023/06/19 00:15:19;;;;;;;10.02;5.55;;;;;;;22.12;100.00;98249.78;5019819;28;20163;-72
2023/06/19 00:17:44;;;;;;;8.90;5.57;;;;;;;22.05;100.00;98250.94;5030443;28;20506;-72
2023/06/19 00:20:10;;;;;;;8.75;6.20;;;;;;;22.09;100.00;98256.72;5018816;28;20056;-72
2023/06/19 00:22:35;;;;;;;9.98;5.68;;;;;;;22.01;100.00;98254.59;5027246;28;20086;-72
2023/06/19 00:25:01;;;;;;;9.55;6.03;;;;;;;22.02;100.00;98246.03;5032241;28;20024;-72
2023/06/19 00:27:26;;;;;;;7.95;5.93;;;;;;;22.06;100.00;98260.88;5034113;28;20040;-72
2023/06/19 00:29:51;;;;;;;7.40;5.47;;;;;;;22.03;100.00;98264.22;5039124;28;20029;-72
2023/06/19 00:32:17;;;;;;;12.05;5.63;;;;;;;21.93;100.00;98255.19;5033357;28;20021;-72
2023/06/19 00:34:42;;;;;;;9.90;5.28;;;;;;;21.91;100.00;98261.03;5016157;28;20491;-72
2023/06/19 00:37:09;;;;;;;6.85;5.65;;;;;;;21.92;100.00;98268.16;5051079;28;20028;-72
2023/06/19 00:39:35;;;;;;;8.57;5.70;;;;;;;21.90;100.00;98256.59;5030610;28;20030;-72
2023/06/19 00:42:01;;;;;;;9.23;6.38;;;;;;;21.89;100.00;98261.31;5033046;28;20039;-72
2023/06/19 00:44:26;;;;;;;8.45;5.50;;;;;;;21.85;100.00;98256.66;5033396;28;20540;-72
2023/06/19 00:46:57;;;;;;;8.15;5.45;;;;;;;21.83;100.00;98258.91;5029198;28;20037;-72
2023/06/19 00:49:23;;;;;;;9.05;5.05;;;;;;;21.83;100.00;98262.47;5018643;28;20026;-72
2023/06/19 00:51:51;;;;;;;9.63;5.22;;;;;;;21.78;100.00;98270.78;5022703;28;20042;-72
2023/06/19 00:54:17;;;;;;;9.32;6.00;;;;;;;21.72;100.00;98271.09;5030130;28;20538;-73
2023/06/19 00:56:42;;;;;;;7.03;5.32;;;;;;;21.74;100.00;98286.22;5033410;28;20029;-72
2023/06/19 00:59:13;;;;;;;7.10;5.53;;;;;;;21.66;100.00;98276.66;5026367;28;20368;-73
2023/06/19 01:01:38;;;;;;;7.85;5.85;;;;;;;21.55;100.00;98275.09;5028724;28;20113;-72
2023/06/19 01:04:03;;;;;;;8.80;5.80;;;;;;;21.60;100.00;98294.34;5027917;28;20147;-72
2023/06/19 01:06:59;;;;;;;13.38;5.28;;;;;;;21.57;100.00;98278.41;5044735;28;20025;-72
2023/06/19 01:09:30;;;;;;;7.28;5.57;;;;;;;21.52;100.00;98264.69;5046072;28;20045;-72
2023/06/19 01:12:01;;;;;;;7.82;5.95;;;;;;;21.74;100.00;98305.50;5025572;28;20136;-72
2023/06/19 01:14:44;;;;;;;11.15;5.30;;;;;;;21.65;100.00;98321.81;5030104;28;20029;-72
2023/06/19 01:17:10;;;;;;;10.90;5.32;;;;;;;21.54;100.00;98316.69;5020861;28;20049;-72
2023/06/19 01:19:35;;;;;;;8.13;5.55;;;;;;;21.45;100.00;98342.06;5030701;28;20044;-72
2023/06/19 01:22:03;;;;;;;8.18;6.05;;;;;;;21.22;100.00;98337.22;5023443;28;20082;-72
2023/06/19 01:24:28;;;;;;;9.57;5.82;;;;;;;20.94;100.00;98330.53;5026707;28;20160;-72
2023/06/19 01:26:53;;;;;;;7.95;5.85;;;;;;;20.96;100.00;98353.06;5019109;28;20492;-72
2023/06/19 01:29:19;;;;;;;11.48;6.10;;;;;;;20.98;100.00;98351.66;5033266;28;20037;-72
2023/06/19 01:31:58;;;;;;;7.30;4.72;;;;;;;21.23;100.00;98369.97;5019645;28;20464;-73
2023/06/19 01:34:25;;;;;;;;;;;;;;;21.52;100.00;98362.94;5013969;28;20593;-72
2023/06/19 01:36:51;;;;;;;6.07;4.47;;;;;;;21.57;100.00;98354.66;5028985;28;19925;-72
2023/06/19 01:39:19;;;;;;;6.82;4.70;;;;;;;21.54;100.00;98350.56;5027801;28;20044;-72
2023/06/19 01:41:46;;;;;;;7.18;4.10;;;;;;;21.60;100.00;98365.09;5027127;28;20050;-71
2023/06/19 01:44:11;;;;;;;5.95;3.70;;;;;;;21.66;100.00;98352.94;5022988;28;20022;-72
2023/06/19 01:46:37;;;;;;;9.05;3.92;;;;;;;21.71;100.00;98360.34;5045913;28;20036;-71
2023/06/19 01:49:07;;;;;;;6.18;3.88;;;;;;;21.76;100.00;98360.28;5049830;28;20056;-72
2023/06/19 01:51:32;;;;;;;5.13;3.45;;;;;;;21.56;100.00;98340.09;5037272;28;20026;-72
2023/06/19 01:53:58;;;;;;;9.32;3.33;;;;;;;21.70;100.00;98350.44;5026989;28;20028;-71
2023/06/19 01:56:24;;;;;;;4.45;2.90;;;;;;;21.62;100.00;98338.94;5035534;28;20044;-71
2023/06/19 01:58:49;;;;;;;10.27;3.20;;;;;;;21.66;100.00;98350.16;5035678;28;20048;-71
2023/06/19 02:01:14;;;;;;;5.88;2.78;;;;;;;21.74;100.00;98348.75;5031462;28;20049;-72
2023/06/19 02:03:40;;;;;;;7.72;2.92;;;;;;;21.73;100.00;98352.63;5019578;28;20025;-72
2023/06/19 02:06:05;;;;;;;4.55;2.75;;;;;;;21.72;100.00;98361.97;5033938;28;20021;-72
2023/06/19 02:08:30;;;;;;;4.03;2.53;;;;;;;21.69;100.00;98363.34;5030385;28;20056;-72
2023/06/19 02:10:55;;;;;;;7.20;2.42;;;;;;;21.62;100.00;98352.69;5025395;28;20556;-72
2023/06/19 02:13:21;;;;;;;3.60;2.40;;;;;;;21.54;100.00;98350.56;5025432;28;20072;-72
2023/06/19 02:15:46;;;;;;;3.20;2.40;;;;;;;21.59;100.00;98350.50;5015641;28;20124;-73
2023/06/19 02:18:11;;;;;;;3.38;2.33;;;;;;;21.69;100.00;98368.06;5023823;28;20056;-72
2023/06/19 02:20:37;;;;;;;4.07;2.47;;;;;;;21.68;100.00;98372.75;5020524;28;20396;-73
2023/06/19 02:23:02;;;;;;;4.00;2.72;;;;;;;21.56;100.00;98351.09;5014233;28;20092;-73
2023/06/19 02:25:27;;;;;;;5.35;2.67;;;;;;;21.53;100.00;98348.06;5017089;28;20108;-73
2023/06/19 02:27:52;;;;;;;2.35;2.10;;;;;;;21.56;100.00;98353.84;5021975;28;20040;-73
2023/06/19 02:30:18;;;;;;;3.55;2.42;;;;;;;21.60;100.00;98354.91;5022762;28;20483;-73
2023/06/19 02:32:43;;;;;;;6.50;2.50;;;;;;;21.51;100.00;98351.13;5019499;28;20024;-73
2023/06/19 02:35:10;;;;;;;6.50;2.72;;;;;;;21.41;100.00;98342.94;5021456;28;20053;-73
2023/06/19 02:37:36;;;;;;;4.22;2.42;;;;;;;21.37;100.00;98328.06;5034142;28;20056;-72
2023/06/19 02:40:04;;;;;;;3.83;2.80;;;;;;;21.36;100.00;98338.25;5033160;28;20028;-72
2023/06/19 02:42:29;;;;;;;4.30;2.60;;;;;;;21.35;100.00;98335.78;5013752;28;20076;-73
2023/06/19 02:45:02;;;;;;;7.10;2.67;;;;;;;21.29;100.00;98332.22;5022598;28;20026;-73
2023/06/19 02:47:27;;;;;;;3.65;2.60;;;;;;;21.31;100.00;98351.22;5028042;28;20037;-73
2023/06/19 02:49:53;;;;;;;3.45;2.55;;;;;;;21.28;100.00;98358.13;5025823;28;20482;-73
2023/06/19 02:52:18;;;;;;;3.03;2.20;;;;;;;21.22;100.00;98346.31;5025962;28;20111;-73
2023/06/19 02:54:43;;;;;;;3.22;2.10;;;;;;;21.25;100.00;98364.19;5026175;28;20129;-73
2023/06/19 02:57:09;;;;;;;2.88;2.30;;;;;;;21.25;100.00;98364.19;5024668;28;20033;-72
2023/06/19 02:59:34;;;;;;;3.05;2.00;;;;;;;21.14;100.00;98355.19;5017432;28;20033;-72
2023/06/19 03:01:59;;;;;;;4.82;2.13;;;;;;;21.22;100.00;98371.09;5030777;28;20645;-73
2023/06/19 03:04:24;;;;;;;4.95;2.08;;;;;;;21.11;100.00;98371.41;5020748;28;20034;-72
2023/06/19 03:06:50;;;;;;;3.42;2.28;;;;;;;20.99;100.00;98371.75;5031796;28;20021;-73
2023/06/19 03:09:15;;;;;;;3.28;2.10;;;;;;;21.04;100.00;98396.47;5030131;28;20438;-73
2023/06/19 03:11:41;;;;;;;2.78;2.05;;;;;;;21.04;100.00;98390.97;5022575;28;20117;-73
2023/06/19 03:14:07;;;;;;;3.08;1.90;;;;;;;21.06;100.00;98390.69;5017068;28;20462;-72
2023/06/19 03:16:33;;;;;;;4.45;1.80;;;;;;;21.02;100.00;98384.94;5028624;28;20605;-70
2023/06/19 03:18:58;;;;;;;2.95;2.03;;;;;;;21.05;100.00;98406.38;5018324;28;20036;-71
2023/06/19 03:21:24;;;;;;;5.57;2.10;;;;;;;21.05;100.00;98397.31;5026000;28;20029;-69
2023/06/19 03:23:50;;;;;;;2.83;2.00;;;;;;;20.97;100.00;98415.22;5030896;28;20027;-71
2023/06/19 03:26:15;;;;;;;2.83;1.77;;;;;;;20.93;100.00;98406.72;5033386;28;20108;-71
2023/06/19 03:28:40;;;;;;;3.70;1.60;;;;;;;20.89;100.00;98407.53;5027921;28;20022;-71
2023/06/19 03:31:06;;;;;;;7.13;1.88;;;;;;;21.03;100.00;98422.31;5026919;28;20037;-70
2023/06/19 03:33:31;;;;;;;5.35;2.13;;;;;;;21.02;100.00;98432.50;5030837;28;20120;-70
2023/06/19 03:35:56;;;;;;;4.32;1.90;;;;;;;21.02;100.00;98420.69;5024425;28;20030;-69
2023/06/19 03:38:22;;;;;;;3.03;1.77;;;;;;;20.95;100.00;98420.97;5025576;28;20044;-69
2023/06/19 03:40:47;;;;;;;1.98;1.63;;;;;;;20.84;100.00;98413.88;5033808;28;20041;-71
2023/06/19 03:43:12;;;;;;;1.98;1.50;;;;;;;20.94;100.00;98419.34;5019103;28;20117;-71
2023/06/19 03:45:38;;;;;;;2.42;1.83;;;;;;;21.01;100.00;98432.78;5030031;28;20029;-71
2023/06/19 03:48:03;;;;;;;2.35;1.90;;;;;;;20.91;100.00;98425.41;5030642;28;20388;-70
2023/06/19 03:50:29;;;;;;;4.07;1.83;;;;;;;20.99;100.00;98444.06;5027834;28;20033;-70
2023/06/19 03:52:54;;;;;;;2.35;1.90;;;;;;;20.94;100.00;98435.03;5023115;28;20060;-70
2023/06/19 03:55:19;;;;;;;1.85;1.60;;;;;;;20.96;100.00;98441.88;5033992;28;20053;-71
2023/06/19 03:57:45;;;;;;;3.20;2.45;;;;;;;20.90;100.00;98433.94;5027037;28;20379;-71
2023/06/19 04:00:12;;;;;;;3.15;1.95;;;;;;;20.85;100.00;98432.00;5031302;28;20025;-71
2023/06/19 04:02:38;;;;;;;2.70;2.10;;;;;;;20.76;100.00;98412.53;5050940;28;20032;-73
2023/06/19 04:05:05;;;;;;;3.88;2.75;;;;;;;20.95;100.00;98433.91;5036199;28;20419;-73
2023/06/19 04:07:31;;;;;;;3.13;2.15;;;;;;;21.00;100.00;98437.47;5033023;28;20044;-71
2023/06/19 04:09:57;;;;;;;2.95;2.20;;;;;;;20.98;100.00;98431.41;5029821;28;20122;-71
2023/06/19 04:12:22;;;;;;;3.58;2.15;;;;;;;21.09;100.00;98442.38;5037203;28;20029;-70
2023/06/19 04:14:47;;;;;;;7.22;2.20;;;;;;;21.13;100.00;98438.78;5035531;28;20484;-70
2023/06/19 04:17:14;;;;;;;3.25;2.20;;;;;;;21.09;100.00;98420.38;5021232;28;20487;-70
2023/06/19 04:19:39;;;;;;;3.45;2.40;;;;;;;21.04;100.00;98423.13;5037373;28;20034;-72
2023/06/19 04:22:05;;;;;;;4.03;2.40;;;;;;;21.08;100.00;98441.56;5037725;28;20033;-68
2023/06/19 04:24:30;;;;;;;6.35;2.65;;;;;;;20.98;100.00;98431.41;5031207;28;20053;-66
2023/06/19 04:26:55;;;;;;;4.65;2.40;;;;;;;20.99;100.00;98444.06;5027295;28;20021;-66
2023/06/19 04:29:21;;;;;;;3.75;2.30;;;;;;;21.15;100.00;98457.78;5028491;28;20391;-65
2023/06/19 04:31:49;;;;;;;3.75;1.98;;;;;;;21.11;100.00;98448.44;5032546;28;20382;-71
2023/06/19 04:34:21;;;;;;;3.00;2.08;;;;;;;21.31;100.00;98450.28;5023040;28;20018;-71
2023/06/19 04:36:47;;;;;;;3.45;2.35;;;;;;;21.34;100.00;98445.03;5015450;28;20022;-70
2023/06/19 04:39:13;;;;;;;6.32;2.30;;;;;;;21.55;100.00;98456.78;5022526;28;20025;-70
2023/06/19 04:41:38;;;;;;;7.40;2.67;;;;;;;21.56;100.00;98463.97;5034473;28;20112;-70
2023/06/19 04:44:07;;;;;;;6.20;2.30;;;;;;;21.69;100.00;98472.69;5022510;28;20022;-69
2023/06/19 04:46:33;;;;;;;4.93;2.30;;;;;;;21.72;100.00;98480.38;5027371;28;20025;-69
2023/06/19 04:48:58;;;;;;;3.50;2.20;;;;;;;21.77;100.00;98483.09;5029349;28;20546;-71
2023/06/19 04:51:24;;;;;;;4.15;2.30;;;;;;;22.03;100.00;98476.34;5019056;28;20383;-69
2023/06/19 04:53:49;;;;;;;4.30;2.25;;;;;;;22.26;100.00;98472.03;5022316;28;20030;-67
2023/06/19 04:56:15;;;;;;;6.75;2.42;;;;;;;22.53;100.00;98478.97;5023887;28;20037;-66
2023/06/19 04:58:45;;;;;;;5.85;2.20;;;;;;;22.74;100.00;98480.44;5019808;28;20026;-69
2023/06/19 05:01:14;;;;;;;4.40;2.17;;;;;;;22.86;100.00;98480.03;5029218;28;20380;-72
2023/06/19 05:03:40;;;;;;;6.35;2.63;;;;;;;22.89;100.00;98473.09;5028140;28;20455;-68
2023/06/19 05:06:05;;;;;;;2.95;2.13;;;;;;;23.01;100.00;98472.75;5014094;28;20018;-69
2023/06/19 05:08:31;;;;;;;6.15;2.42;;;;;;;23.17;100.00;98468.69;5021943;28;20353;-68
2023/06/19 05:10:57;;;;;;;3.92;2.45;;;;;;;23.33;100.00;98489.47;5020455;28;20483;-68
2023/06/19 05:13:23;;;;;;;4.78;3.10;;;;;;;23.43;100.00;98483.00;5021362;28;20542;-70
2023/06/19 05:15:48;;;;;;;4.88;2.60;;;;;;;23.61;100.00;98489.69;5010091;28;20121;-70
2023/06/19 05:18:14;;;;;;;10.02;2.72;;;;;;;23.60;100.00;98474.22;5030691;28;20061;-69
2023/06/19 05:20:39;;;;;;;5.07;2.65;;;;;;;23.76;100.00;98484.00;5026674;28;20041;-65
2023/06/19 05:23:05;;;;;;;4.60;2.53;;;;;;;24.00;100.00;98459.03;5021385;28;20033;-70
2023/06/19 05:25:30;;;;;;;3.63;2.33;;;;;;;24.01;100.00;98481.97;5024330;28;20026;-72
2023/06/19 05:27:56;;;;;;;4.25;2.35;;;;;;;24.18;100.00;98486.94;5023828;28;20467;-72
2023/06/19 05:30:21;;;;;;;3.97;2.63;;;;;;;24.22;100.00;98482.47;5024326;28;20032;-73
2023/06/19 05:32:46;;;;;;;3.83;2.85;;;;;;;24.44;100.00;98479.06;5029767;28;20052;-75
2023/06/19 05:35:12;;;;;;;4.72;2.67;;;;;;;24.52;100.00;98478.38;5018701;28;20049;-76
2023/06/19 05:37:38;;;;;;;3.75;2.65;;;;;;;24.34;100.00;98477.31;5023083;28;20033;-73
2023/06/19 05:40:05;;;;;;;4.78;2.20;;;;;;;24.30;100.00;98473.47;5025334;28;20087;-75
2023/06/19 05:42:31;;;;;;;3.90;2.50;;;;;;;24.19;100.00;98486.66;5031662;28;20017;-77
2023/06/19 05:44:56;;;;;;;4.47;2.60;;;;;;;24.15;100.00;98473.72;5031227;28;20022;-77
2023/06/19 05:47:25;;;;;;;4.60;2.33;;;;;;;24.39;100.00;98493.81;5021011;28;20498;-77
2023/06/19 05:49:51;;;;;;;2.72;2.03;;;;;;;25.01;100.00;98492.75;5018372;28;20022;-77
2023/06/19 05:52:16;;;;;;;5.82;2.60;;;;;;;25.32;100.00;98485.50;5014268;28;20152;-77
2023/06/19 05:54:42;;;;;;;7.75;2.15;;;;;;;25.52;100.00;98481.50;5030960;28;20025;-77
2023/06/19 05:57:07;;;;;;;2.83;1.73;;;;;;;25.88;100.00;98505.66;5030253;28;20384;-77
2023/06/19 05:59:32;;;;;;;6.47;2.10;;;;;;;26.14;100.00;98503.13;5030067;28;20525;-77
2023/06/19 06:01:57;;;;;;;4.20;2.00;;;;;;;26.39;100.00;98500.91;5023833;28;20022;-76
2023/06/19 06:04:23;;;;;;;3.30;2.20;;;;;;;26.16;100.00;98508.38;5021871;28;20452;-77
2023/06/19 06:06:48;;;;;;;2.60;1.92;;;;;;;25.54;100.00;98486.72;5026087;28;20032;-75
2023/06/19 06:09:14;;;;;;;3.25;2.10;;;;;;;25.41;100.00;98488.38;5026864;28;20029;-74
2023/06/19 06:11:40;;;;;;;3.60;2.40;;;;;;;25.11;100.00;98492.56;5021016;28;20053;-76
2023/06/19 06:14:05;;;;;;;3.88;2.00;;;;;;;24.93;100.00;98499.81;5029247;28;20025;-79
2023/06/19 06:16:31;;;;;;;3.05;1.83;;;;;;;25.12;100.00;98503.31;5026725;28;20033;-75
2023/06/19 06:18:56;;;;;;;2.95;2.00;;;;;;;25.11;100.00;98492.56;5022001;28;20038;-73
2023/06/19 06:21:21;;;;;;;5.18;1.73;;;;;;;25.19;100.00;98494.63;5020494;28;20026;-74
2023/06/19 06:23:47;;;;;;;3.25;1.98;;;;;;;25.47;100.00;98505.72;5020976;28;20025;-74
2023/06/19 06:26:14;;;;;;;5.88;2.17;;;;;;;25.68;100.00;98512.47;5026148;28;20467;-77
2023/06/19 06:28:40;;;;;;;2.92;1.88;;;;;;;25.45;100.00;98506.03;5038486;28;20030;-76
2023/06/19 06:31:05;;;;;;;2.95;1.70;;;;;;;25.43;100.00;98504.69;5030403;28;20036;-76
2023/06/19 06:33:30;;;;;;;2.80;1.95;;;;;;;25.33;100.00;98516.78;5023967;28;20109;-71
2023/06/19 06:35:58;;;;;;;2.63;1.80;;;;;;;25.40;100.00;98502.53;5025971;28;20022;-75
2023/06/19 06:38:23;;;;;;;3.08;1.75;;;;;;;25.83;100.00;98516.84;5019068;28;20028;-72
2023/06/19 06:40:48;;;;;;;2.72;2.20;;;;;;;26.00;100.00;98505.97;5022839;28;20025;-70
2023/06/19 06:43:14;;;;;;;3.20;2.03;;;;;;;26.40;100.00;98506.13;5026002;28;20036;-71
2023/06/19 06:45:41;;;;;;;2.15;1.75;;;;;;;26.89;100.00;98515.44;5026205;28;20428;-70
2023/06/19 06:48:07;;;;;;;4.45;2.10;;;;;;;27.74;100.00;98525.63;5022625;28;20034;-71
2023/06/19 06:50:33;;;;;;;3.80;2.70;;;;;;;28.27;100.00;98516.25;5027360;28;20063;-70
2023/06/19 06:52:59;;;;;;;2.97;2.15;;;;;;;27.38;100.00;98523.91;5024121;28;20045;-71
2023/06/19 06:55:24;;;;;;;2.65;1.88;;;;;;;27.70;100.00;98528.22;5022446;28;20029;-70
2023/06/19 06:57:49;;;;;;;4.97;1.90;;;;;;;29.68;93.58;98546.25;5028530;28;20040;-71
2023/06/19 07:00:15;;;;;;;3.35;2.13;;;;;;;32.26;74.78;98527.50;5030067;28;20558;-70
2023/06/19 07:02:40;;;;;;;2.55;1.85;;;;;;;33.39;63.70;98537.50;5025560;28;20104;-71
2023/06/19 07:05:09;;;;;;;3.33;1.83;;;;;;;33.11;61.33;98545.97;5022252;28;20093;-71
2023/06/19 07:07:35;;;;;;;4.70;1.60;;;;;;;30.96;67.99;98491.72;5025406;28;20048;-71
2023/06/19 07:10:00;;;;;;;2.92;1.80;;;;;;;31.02;72.52;98550.97;5018301;28;20109;-71
2023/06/19 07:12:26;;;;;;;7.78;1.88;;;;;;;31.22;72.05;98538.09;5017171;28;20467;-71
2023/06/19 07:14:54;;;;;;;3.38;2.08;;;;;;;33.38;63.44;98544.28;5028736;28;20032;-71
2023/06/19 07:17:20;;;;;;;2.95;1.90;;;;;;;31.74;65.27;98537.47;5026200;28;20423;-71
2023/06/19 07:19:45;;;;;;;2.85;2.08;;;;;;;29.73;73.05;98561.97;5012722;28;20065;-71
2023/06/19 07:22:11;;;;;;;4.30;2.13;;;;;;;28.48;89.75;98554.53;5023966;28;20096;-71
2023/06/19 07:24:36;;;;;;;4.05;1.80;;;;;;;30.22;79.13;98543.63;5019324;28;20029;-71
2023/06/19 07:27:02;;;;;;;2.83;1.92;;;;;;;30.52;75.93;98549.97;5016824;28;20030;-71
2023/06/19 07:29:27;;;;;;;3.50;1.70;;;;;;;30.35;77.05;98564.88;5028065;28;20472;-71
2023/06/19 07:31:52;;;;;;;5.95;1.80;;;;;;;29.78;80.00;98565.38;5020614;28;20530;-71
2023/06/19 07:34:18;;;;;;;3.95;1.65;;;;;;;31.09;73.37;98556.03;5018413;28;20539;-71
2023/06/19 07:36:43;;;;;;;4.57;2.08;;;;;;;30.35;74.90;98564.06;5024361;28;20034;-71
2023/06/19 07:39:09;;;;;;;6.53;2.22;;;;;;;29.21;81.51;98560.19;5031910;28;20490;-75
2023/06/19 07:41:35;;;;;;;2.50;1.52;;;;;;;29.56;84.06;98560.06;5050287;28;20067;-76
2023/06/19 07:44:00;;;;;;;5.95;1.95;;;;;;;29.42;83.85;98560.28;5052219;28;20021;-76
2023/06/19 07:46:25;;;;;;;3.83;2.10;;;;;;;29.12;85.18;98551.06;5024499;28;20388;-77
2023/06/19 07:48:50;;;;;;;3.20;2.17;;;;;;;28.75;88.37;98543.06;5029225;28;20364;-76
2023/06/19 07:51:16;;;;;;;2.72;2.05;;;;;;;28.73;94.70;98572.41;5031531;28;20040;-75
2023/06/19 07:53:43;;;;;;;3.38;1.83;;;;;;;29.06;90.14;98569.91;5031406;28;20036;-76
2023/06/19 07:56:09;;;;;;;2.38;1.85;;;;;;;29.40;86.77;98543.09;5030952;28;20045;-76
2023/06/19 07:58:35;;;;;;;4.32;2.13;;;;;;;29.03;89.73;98546.28;5025341;28;20034;-77
2023/06/19 08:01:00;;;;;;;2.50;1.88;;;;;;;28.62;97.96;98558.00;5027177;28;20028;-76
2023/06/19 08:03:26;;;;;;;5.28;2.17;;;;;;;28.36;100.00;98569.09;5031941;28;20021;-77
2023/06/19 08:05:51;;;;;;;5.18;2.40;;;;;;;28.19;100.00;98548.47;5024583;28;20018;-77
2023/06/19 08:08:16;;;;;;;3.33;1.92;;;;;;;27.77;100.00;98547.19;5032037;28;20387;-75
2023/06/19 08:10:42;;;;;;;2.75;1.85;;;;;;;28.09;100.00;98554.34;5032836;28;20025;-73
2023/06/19 08:13:07;;;;;;;2.88;2.00;;;;;;;28.85;100.00;98569.75;5023359;28;20022;-74
2023/06/19 08:15:33;;;;;;;3.35;1.95;;;;;;;29.39;98.64;98584.06;5024107;28;20045;-74
2023/06/19 08:17:58;;;;;;;2.85;1.90;;;;;;;29.57;93.58;98576.44;5031982;28;20509;-74
2023/06/19 08:20:23;;;;;;;2.15;1.63;;;;;;;29.76;91.01;98570.47;5035328;28;20109;-73
2023/06/19 08:22:49;;;;;;;1.73;1.50;;;;;;;30.00;86.15;98580.19;5027385;28;20072;-69
2023/06/19 08:25:14;;;;;;;2.00;1.75;;;;;;;30.24;82.39;98572.03;5034026;28;20053;-79
2023/06/19 08:27:39;;;;;;;5.28;1.63;;;;;;;31.39;75.38;98567.88;5029110;28;20459;-75
2023/06/19 08:30:05;;;;;;;2.47;1.73;;;;;;;33.64;68.47;98578.59;5016347;28;20041;-72
2023/06/19 08:32:31;;;;;;;3.65;1.58;;;;;;;37.18;52.53;98571.00;5027707;28;20087;-73
2023/06/19 08:34:56;;;;;;;4.25;1.67;;;;;;;39.88;44.66;98559.91;5021697;28;20520;-73
2023/06/19 08:37:21;;;;;;;5.07;1.80;;;;;;;40.26;42.36;98561.06;5033180;28;20033;-72
2023/06/19 08:39:46;;;;;;;2.15;1.30;;;;;;;42.49;37.26;98576.66;5027552;28;20951;-70
2023/06/19 08:42:12;;;;;;;2.20;1.58;;;;;;;39.62;40.41;98564.75;5033702;28;20578;-70
2023/06/19 08:44:37;;;;;;;2.15;1.65;;;;;;;37.45;43.58;98573.69;5025871;28;20090;-70
2023/06/19 08:47:03;;;;;;;4.03;1.97;;;;;;;35.58;47.72;98569.53;5023772;28;20428;-70
2023/06/19 08:49:35;;;;;;;2.33;1.85;;;;;;;38.24;45.32;98563.84;5014913;28;20360;-70
2023/06/19 08:52:01;;;;;;;2.05;1.75;;;;;;;39.82;42.32;98553.81;5018015;28;20079;-70
2023/06/19 08:54:27;;;;;;;4.82;1.90;;;;;;;42.61;38.95;98550.53;5026855;28;20567;-74
2023/06/19 08:56:53;;;;;;;2.25;1.85;;;;;;;43.81;35.93;98543.50;5027892;28;20025;-79
2023/06/19 08:59:20;;;;;;;2.75;1.75;;;;;;;45.64;33.77;98551.09;5028017;28;20595;-76
2023/06/19 09:01:52;;;;;;;3.25;1.40;;;;;;;45.17;33.08;98540.81;5031114;28;20033;-75
2023/06/19 09:04:20;;;;;;;3.22;1.45;;;;;;;44.25;34.07;98540.66;5026593;28;20043;-75
2023/06/19 09:06:53;;;;;;;2.65;1.67;;;;;;;42.59;34.75;98544.44;5023277;28;20032;-75
2023/06/19 09:09:21;;;;;;;2.58;1.70;;;;;;;40.57;37.48;98560.59;5040483;28;20036;-74
2023/06/19 09:12:16;;;;;;;1.92;1.70;;;;;;;41.09;37.05;98557.94;5033203;28;20032;-68
2023/06/19 09:14:44;;;;;;;2.15;1.92;;;;;;;40.39;37.67;98549.31;5009349;28;20033;-79
2023/06/19 09:17:18;;;;;;;1.85;1.58;;;;;;;39.36;38.19;98551.78;5028368;28;20021;-73
2023/06/19 09:19:49;;;;;;;1.70;1.50;;;;;;;38.77;39.83;98556.84;5021942;28;20037;-73
2023/06/19 09:22:18;;;;;;;1.38;1.20;;;;;;;39.95;39.04;98536.41;5021064;28;20033;-73
2023/06/19 09:24:43;;;;;;;1.83;1.55;;;;;;;42.34;36.70;98539.88;5021991;28;20044;-73
2023/06/19 09:27:13;;;;;;;1.87;1.60;;;;;;;42.63;35.00;98542.34;5021527;28;20430;-74
2023/06/19 09:29:39;;;;;;;1.95;1.50;;;;;;;44.16;33.60;98546.94;5029739;28;20784;-74
2023/06/19 09:32:14;;;;;;;3.53;1.48;;;;;;;45.35;32.12;98548.91;5021832;28;20116;-74
2023/06/19 09:34:40;;;;;;;3.70;1.90;;;;;;;47.36;30.74;98546.22;5024667;28;20028;-74
2023/06/19 09:37:06;;;;;;;1.92;1.70;;;;;;;45.85;30.51;98539.13;5020835;28;20037;-72
2023/06/19 09:39:32;;;;;;;1.95;1.55;;;;;;;45.46;31.05;98540.06;5018955;28;20112;-73
2023/06/19 09:41:59;;;;;;;2.65;1.52;;;;;;;44.09;31.68;98552.78;5024127;28;20372;-74
2023/06/19 09:44:26;;;;;;;2.35;1.73;;;;;;;45.32;31.12;98544.09;5022711;28;20122;-74
2023/06/19 09:46:52;;;;;;;4.20;1.58;;;;;;;43.83;31.43;98545.91;5017018;28;20033;-73
2023/06/19 09:49:19;;;;;;;2.03;1.50;;;;;;;44.54;31.63;98550.28;5019538;28;20080;-73
2023/06/19 09:51:45;;;;;;;2.83;1.40;;;;;;;43.22;32.88;98547.69;5022890;28;20025;-74
2023/06/19 09:54:11;;;;;;;1.48;1.30;;;;;;;41.34;34.88;98543.56;5025926;28;20033;-74
2023/06/19 09:56:37;;;;;;;2.95;1.60;;;;;;;40.64;36.35;98520.81;5028278;28;20029;-73
2023/06/19 09:59:04;;;;;;;1.92;1.45;;;;;;;40.31;36.40;98542.84;5020767;28;20029;-73
2023/06/19 10:01:31;;;;;;;1.92;1.40;;;;;;;40.27;36.33;98534.38;5025257;28;20032;-70
2023/06/19 10:04:06;;;;;;;1.98;1.55;;;;;;;40.29;36.66;98545.28;5045944;28;20124;-74
2023/06/19 10:06:32;;;;;;;1.92;1.48;;;;;;;38.94;38.31;98529.88;5020964;28;20491;-74
2023/06/19 10:09:06;;;;;;;1.52;1.42;;;;;;;37.03;40.48;98536.19;5011876;28;20022;-76
2023/06/19 10:11:48;;;;;;;2.42;2.00;;;;;;;36.48;41.31;98543.56;5026801;28;20467;-74
2023/06/19 10:14:13;;;;;;;2.53;1.80;;;;;;;37.15;41.05;98551.22;5022016;28;20031;-74
2023/06/19 10:16:40;;;;;;;1.95;1.48;;;;;;;40.73;38.94;98533.38;5024021;28;20029;-73
2023/06/19 10:19:17;;;;;;;3.35;1.92;;;;;;;41.87;36.04;98535.84;5017488;28;20013;-74
2023/06/19 10:21:53;;;;;;;1.40;1.30;;;;;;;45.33;33.08;98531.44;5024718;28;20034;-73
2023/06/19 10:24:20;;;;;;;4.00;1.38;;;;;;;44.99;33.46;98532.63;4998223;28;20365;-74
2023/06/19 10:27:02;;;;;;;2.13;1.43;;;;;;;43.98;33.92;98542.38;5027121;28;20080;-74
2023/06/19 10:29:54;;;;;;;2.55;1.50;;;;;;;44.34;33.43;98529.47;5021298;28;20033;-74
2023/06/19 10:32:21;;;;;;;2.65;1.52;;;;;;;46.27;31.29;98530.66;5026156;28;20042;-74
2023/06/19 10:34:48;;;;;;;1.50;1.40;;;;;;;45.40;31.37;98531.25;5027897;28;20712;-74
2023/06/19 10:37:14;;;;;;;;;;;;;;;45.71;31.19;98530.91;5027671;28;20025;-74
2023/06/19 10:39:39;;;;;;;3.15;1.55;;;;;;;44.46;32.48;98531.69;5020372;28;19913;-74
2023/06/19 10:42:07;;;;;;;2.90;1.30;;;;;;;46.23;31.33;98524.22;5016795;28;20034;-74
2023/06/19 10:44:32;;;;;;;1.73;1.27;;;;;;;47.14;30.37;98518.28;5028634;28;20025;-75
2023/06/19 10:46:57;;;;;;;1.53;1.30;;;;;;;47.63;29.37;98532.22;5026127;28;20079;-75
2023/06/19 10:49:23;;;;;;;1.60;1.40;;;;;;;46.50;30.23;98520.19;5026007;28;20060;-75
2023/06/19 10:51:48;;;;;;;2.22;1.58;;;;;;;45.98;31.05;98519.19;5013680;28;20030;-75
2023/06/19 10:54:14;;;;;;;1.73;1.52;;;;;;;45.79;30.58;98520.09;5024230;28;20083;-75
2023/06/19 10:56:39;;;;;;;1.60;1.40;;;;;;;44.87;32.00;98509.66;5029404;28;20117;-74
2023/06/19 10:59:09;;;;;;;2.88;1.70;;;;;;;45.32;31.83;98501.25;5021734;28;20037;-74
2023/06/19 11:01:40;;;;;;;1.30;1.20;;;;;;;46.85;30.73;98508.94;5021046;28;20040;-75
2023/06/19 11:04:07;;;;;;;1.90;1.50;;;;;;;46.93;29.91;98491.09;5014246;28;20109;-75
2023/06/19 11:06:33;;;;;;;;;;;;;;;47.94;29.07;98505.78;5028184;28;20033;-75
2023/06/19 11:09:00;;;;;;;2.40;1.35;;;;;;;48.05;30.00;98500.44;5024578;28;19913;-75
2023/06/19 11:11:38;;;;;;;1.85;1.60;;;;;;;46.12;30.80;98495.13;5012230;28;20064;-75
2023/06/19 11:14:04;;;;;;;1.98;1.45;;;;;;;46.28;30.52;98486.47;5014618;28;20029;-79
2023/06/19 11:16:29;;;;;;;4.00;1.75;;;;;;;47.12;30.25;98489.28;5030356;28;20175;-77
2023/06/19 11:18:58;;;;;;;1.55;1.45;;;;;;;47.12;30.00;98495.00;5020666;28;20435;-76
2023/06/19 11:21:38;;;;;;;1.77;1.40;;;;;;;46.86;29.64;98496.25;5027996;28;20018;-75
2023/06/19 11:24:11;;;;;;;2.00;1.52;;;;;;;46.00;30.53;98496.66;5032345;28;20029;-74
2023/06/19 11:26:49;;;;;;;1.65;1.40;;;;;;;46.34;30.51;98483.88;5027035;28;20554;-74